createdAt,value
2023-02-11T00:01:33.514Z,4.30
2023-02-11T00:06:31.380Z,2.80
2023-02-11T00:09:00.078Z,3.70
2023-02-11T00:11:30.652Z,4.20
2023-02-11T00:14:01.504Z,4.60
2023-02-11T00:19:02.902Z,2.90
2023-02-11T00:21:31.338Z,3.40
2023-02-11T00:24:02.285Z,3.50
2023-02-11T00:26:33.164Z,3.80
2023-02-11T00:29:02.289Z,3.20
2023-02-11T00:31:30.465Z,3.60
2023-02-11T00:33:58.589Z,2.60
2023-02-11T00:36:28.671Z,2.70
2023-02-11T00:38:59.715Z,3.60
2023-02-11T00:41:27.796Z,2.80
2023-02-11T00:43:55.860Z,3.40
2023-02-11T00:46:24.621Z,2.80
2023-02-11T00:48:55.181Z,3.50
2023-02-11T00:51:24.349Z,4.40
2023-02-11T00:53:53.224Z,4.10
2023-02-11T00:56:21.889Z,4.10
2023-02-11T00:58:49.915Z,3.40
2023-02-11T01:01:18.090Z,3.40
2023-02-11T01:03:46.551Z,2.60
2023-02-11T01:06:14.798Z,3.40
2023-02-11T01:08:42.943Z,4.00
2023-02-11T01:11:17.779Z,3.70
2023-02-11T01:13:46.776Z,3.60
2023-02-11T01:16:15.149Z,2.80
2023-02-11T01:18:44.537Z,3.10
2023-02-11T01:21:12.863Z,3.80
2023-02-11T01:23:40.915Z,3.80
2023-02-11T01:26:09.042Z,2.50
2023-02-11T01:28:37.132Z,5.00
2023-02-11T01:31:05.446Z,4.20
2023-02-11T01:33:33.907Z,3.40
2023-02-11T01:36:04.551Z,2.60
2023-02-11T01:38:33.768Z,3.10
2023-02-11T01:41:05.250Z,3.00
2023-02-11T01:43:37.037Z,3.30
2023-02-11T01:46:33.977Z,3.60
2023-02-11T01:49:10.447Z,3.60
2023-02-11T01:51:42.618Z,3.20
2023-02-11T01:54:32.106Z,3.00
2023-02-11T01:57:20.752Z,2.50
2023-02-11T02:00:18.288Z,2.70
2023-02-11T02:02:58.453Z,2.90
2023-02-11T02:05:32.784Z,3.70
2023-02-11T02:08:00.758Z,3.20
2023-02-11T02:10:29.835Z,2.60
2023-02-11T02:12:58.325Z,4.00
2023-02-11T02:15:33.936Z,3.60
2023-02-11T02:18:32.621Z,3.40
2023-02-11T02:21:29.870Z,3.80
2023-02-11T02:24:11.541Z,2.40
2023-02-11T02:27:14.652Z,3.30
2023-02-11T02:29:51.467Z,2.70
2023-02-11T02:32:41.972Z,3.20
2023-02-11T02:35:31.682Z,2.90
2023-02-11T02:38:08.692Z,3.10
2023-02-11T02:40:54.632Z,2.40
2023-02-11T02:43:24.472Z,2.50
2023-02-11T02:45:53.123Z,2.00
2023-02-11T02:48:33.419Z,2.80
2023-02-11T02:51:19.347Z,2.60
2023-02-11T02:54:08.788Z,2.80
2023-02-11T02:56:54.859Z,2.40
2023-02-11T02:59:31.830Z,3.30
2023-02-11T03:02:25.135Z,3.60
2023-02-11T03:05:22.134Z,2.20
2023-02-11T03:08:11.193Z,3.30
2023-02-11T03:10:44.259Z,2.80
2023-02-11T03:13:17.094Z,2.70
2023-02-11T03:15:50.407Z,3.10
2023-02-11T03:18:22.423Z,3.60
2023-02-11T03:20:53.511Z,2.90
2023-02-11T03:23:28.522Z,3.30
2023-02-11T03:26:03.008Z,3.20
2023-02-11T03:29:03.849Z,2.60
2023-02-11T03:31:32.146Z,4.10
2023-02-11T03:34:09.622Z,3.10
2023-02-11T03:36:51.288Z,2.60
2023-02-11T03:39:29.905Z,2.10
2023-02-11T03:42:00.906Z,2.70
2023-02-11T03:44:35.084Z,2.50
2023-02-11T03:47:06.112Z,2.60
2023-02-11T03:49:37.975Z,2.00
2023-02-11T03:52:07.992Z,2.40
2023-02-11T03:54:36.575Z,2.70
2023-02-11T03:57:04.854Z,2.40
2023-02-11T03:59:33.054Z,3.50
2023-02-11T04:02:01.174Z,3.20
2023-02-11T04:04:29.251Z,3.00
2023-02-11T04:06:57.829Z,2.90
2023-02-11T04:09:25.831Z,2.70
2023-02-11T04:11:53.833Z,2.70
2023-02-11T04:14:21.926Z,3.20
2023-02-11T04:16:49.925Z,3.10
2023-02-11T04:19:18.008Z,3.70
2023-02-11T04:21:47.067Z,3.20
2023-02-11T04:24:15.132Z,2.80
2023-02-11T04:26:43.249Z,3.30
2023-02-11T04:29:11.316Z,2.70
2023-02-11T04:31:39.474Z,3.80
2023-02-11T04:34:07.559Z,2.80
2023-02-11T04:36:35.680Z,2.20
2023-02-11T04:39:04.413Z,3.10
2023-02-11T04:41:32.440Z,3.60
2023-02-11T04:44:00.554Z,4.80
2023-02-11T04:46:28.678Z,2.40
2023-02-11T04:48:57.181Z,3.00
2023-02-11T04:51:25.685Z,3.10
2023-02-11T04:53:53.785Z,2.80
2023-02-11T04:56:21.830Z,4.30
2023-02-11T04:58:49.901Z,2.90
2023-02-11T05:01:18.169Z,3.10
2023-02-11T05:03:46.274Z,3.10
2023-02-11T05:06:14.743Z,4.90
2023-02-11T05:08:42.922Z,2.70
2023-02-11T05:11:20.156Z,4.50
2023-02-11T05:13:48.631Z,3.20
2023-02-11T05:16:18.019Z,3.90
2023-02-11T05:18:46.315Z,3.30
2023-02-11T05:21:17.531Z,2.90
2023-02-11T05:23:45.803Z,3.00
2023-02-11T05:26:14.702Z,3.20
2023-02-11T05:28:43.265Z,4.00
2023-02-11T05:31:12.485Z,3.60
2023-02-11T05:33:41.874Z,3.50
2023-02-11T05:36:12.056Z,2.80
2023-02-11T05:38:40.840Z,3.80
2023-02-11T05:41:10.139Z,3.40
2023-02-11T05:43:38.235Z,3.00
2023-02-11T05:46:06.586Z,4.00
2023-02-11T05:48:35.039Z,4.70
2023-02-11T05:51:03.198Z,3.80
2023-02-11T05:53:31.237Z,3.50
2023-02-11T05:55:59.290Z,3.30
2023-02-11T05:58:27.968Z,2.50
2023-02-11T06:00:56.489Z,3.00
2023-02-11T06:03:24.602Z,4.00
2023-02-11T06:05:52.882Z,3.00
2023-02-11T06:08:21.040Z,3.60
2023-02-11T06:10:49.631Z,4.10
2023-02-11T06:13:18.891Z,3.60
2023-02-11T06:15:56.609Z,4.10
2023-02-11T06:18:24.793Z,2.70
2023-02-11T06:20:53.012Z,3.40
2023-02-11T06:23:21.547Z,4.50
2023-02-11T06:25:50.694Z,4.20
2023-02-11T06:28:19.573Z,4.30
2023-02-11T06:30:47.725Z,4.10
2023-02-11T06:33:16.088Z,3.90
2023-02-11T06:35:44.094Z,3.80
2023-02-11T06:38:12.149Z,3.70
2023-02-11T06:40:40.229Z,4.10
2023-02-11T06:43:08.281Z,5.30
2023-02-11T06:45:36.554Z,3.70
2023-02-11T06:48:04.673Z,4.40
2023-02-11T06:50:32.695Z,5.40
2023-02-11T06:53:01.240Z,4.90
2023-02-11T06:55:29.299Z,5.10
2023-02-11T06:57:57.320Z,6.30
2023-02-11T07:00:26.686Z,6.00
2023-02-11T07:02:55.044Z,5.80
2023-02-11T07:05:23.244Z,5.00
2023-02-11T07:07:51.315Z,5.00
2023-02-11T07:10:19.559Z,8.80
2023-02-11T07:12:47.567Z,6.10
2023-02-11T07:15:15.655Z,6.40
2023-02-11T07:17:43.687Z,7.40
2023-02-11T07:20:14.837Z,5.90
2023-02-11T07:22:42.971Z,7.90
2023-02-11T07:25:11.096Z,6.80
2023-02-11T07:27:39.264Z,8.10
2023-02-11T07:30:07.793Z,7.90
2023-02-11T07:32:35.861Z,7.10
2023-02-11T07:35:04.936Z,5.70
2023-02-11T07:37:36.188Z,6.10
2023-02-11T07:40:04.475Z,6.60
2023-02-11T07:42:33.982Z,5.60
2023-02-11T07:45:02.293Z,6.80
2023-02-11T07:47:30.474Z,5.30
2023-02-11T07:49:58.661Z,6.40
2023-02-11T07:52:30.278Z,6.30
2023-02-11T07:54:58.403Z,6.40
2023-02-11T07:57:26.525Z,5.10
2023-02-11T07:59:54.643Z,6.60
2023-02-11T08:02:22.707Z,6.20
2023-02-11T08:04:50.971Z,6.00
2023-02-11T08:07:19.556Z,8.10
2023-02-11T08:09:47.808Z,8.70
2023-02-11T08:12:15.844Z,7.40
2023-02-11T08:14:43.923Z,7.30
2023-02-11T08:17:11.922Z,7.90
2023-02-11T08:19:40.028Z,7.70
2023-02-11T08:22:08.031Z,8.00
2023-02-11T08:24:36.041Z,6.40
2023-02-11T08:27:04.330Z,6.50
2023-02-11T08:29:32.338Z,7.40
2023-02-11T08:32:00.471Z,6.80
2023-02-11T08:34:28.596Z,8.10
2023-02-11T08:36:56.735Z,7.30
2023-02-11T08:39:24.914Z,9.10
2023-02-11T08:41:54.873Z,9.20
2023-02-11T08:44:23.775Z,9.30
2023-02-11T08:46:52.200Z,10.70
2023-02-11T08:49:20.782Z,11.40
2023-02-11T08:51:49.908Z,12.30
2023-02-11T08:54:18.350Z,11.30
2023-02-11T08:56:46.522Z,12.60
2023-02-11T08:59:15.686Z,13.20
2023-02-11T09:01:44.734Z,13.70
2023-02-11T09:04:13.276Z,15.70
2023-02-11T09:06:41.584Z,14.00
2023-02-11T09:09:14.786Z,17.00
2023-02-11T09:11:44.786Z,19.00
2023-02-11T09:14:19.541Z,19.80
2023-02-11T09:16:48.897Z,20.00
2023-02-11T09:19:18.179Z,19.20
2023-02-11T09:21:47.007Z,20.80
2023-02-11T09:24:15.626Z,20.40
2023-02-11T09:26:43.771Z,16.60
2023-02-11T09:29:12.076Z,18.30
2023-02-11T09:31:40.147Z,17.90
2023-02-11T09:34:08.529Z,16.80
2023-02-11T09:36:39.535Z,16.60
2023-02-11T09:39:12.743Z,17.80
2023-02-11T09:42:03.975Z,17.60
2023-02-11T09:44:34.969Z,18.80
2023-02-11T09:49:54.004Z,17.80
2023-02-11T09:52:30.370Z,18.10
2023-02-11T09:55:04.967Z,18.00
2023-02-11T09:57:36.431Z,18.40
2023-02-11T10:00:19.831Z,17.90
2023-02-11T10:03:32.392Z,17.70
2023-02-11T10:06:24.825Z,17.70
2023-02-11T10:09:17.563Z,16.80
2023-02-11T10:12:16.655Z,14.40
2023-02-11T10:15:03.028Z,15.10
2023-02-11T10:17:52.276Z,16.30
2023-02-11T10:20:38.467Z,15.50
2023-02-11T10:23:29.202Z,13.50
2023-02-11T10:25:59.237Z,14.70
2023-02-11T10:28:34.008Z,15.50
2023-02-11T10:31:08.283Z,15.50
2023-02-11T10:34:03.847Z,18.60
2023-02-11T10:36:40.097Z,18.20
2023-02-11T10:39:24.042Z,19.90
2023-02-11T10:42:13.865Z,18.50
2023-02-11T10:44:59.263Z,19.80
2023-02-11T10:47:34.743Z,19.90
2023-02-11T10:50:19.462Z,18.10
2023-02-11T10:52:47.541Z,20.00
2023-02-11T10:55:26.267Z,18.10
2023-02-11T10:57:58.686Z,20.60
2023-02-11T11:00:40.196Z,20.50
2023-02-11T11:03:21.578Z,21.30
2023-02-11T11:05:58.470Z,19.40
2023-02-11T11:08:46.465Z,21.90
2023-02-11T11:11:18.746Z,20.50
2023-02-11T11:13:52.440Z,21.10
2023-02-11T11:16:20.593Z,21.30
2023-02-11T11:18:51.380Z,20.90
2023-02-11T11:21:23.921Z,22.50
2023-02-11T11:24:01.036Z,21.60
2023-02-11T11:26:41.627Z,21.60
2023-02-11T11:29:14.720Z,20.20
2023-02-11T11:31:48.044Z,21.10
2023-02-11T11:34:29.152Z,19.50
2023-02-11T11:36:59.563Z,21.90
2023-02-11T11:39:31.560Z,20.30
2023-02-11T11:42:20.815Z,20.50
2023-02-11T11:45:01.426Z,16.10
2023-02-11T11:47:41.208Z,16.30
2023-02-11T11:50:21.272Z,15.70
2023-02-11T11:52:56.562Z,15.30
2023-02-11T11:55:31.248Z,16.70
2023-02-11T11:57:59.383Z,15.20
2023-02-11T12:00:44.140Z,15.70
2023-02-11T12:03:32.876Z,15.90
2023-02-11T12:06:53.528Z,14.70
2023-02-11T12:09:37.727Z,14.50
2023-02-11T12:12:23.738Z,14.70
2023-02-11T12:15:22.055Z,13.40
2023-02-11T12:18:20.692Z,14.10
2023-02-11T12:21:13.292Z,13.40
2023-02-11T12:23:51.328Z,12.60
2023-02-11T12:26:49.312Z,13.60
2023-02-11T12:29:38.603Z,14.60
2023-02-11T12:32:32.102Z,15.80
2023-02-11T12:35:11.590Z,15.40
2023-02-11T12:38:12.605Z,14.30
2023-02-11T12:40:54.764Z,15.00
2023-02-11T12:43:29.836Z,16.60
2023-02-11T12:46:24.794Z,16.10
2023-02-11T12:49:17.461Z,16.10
2023-02-11T12:52:10.175Z,15.60
2023-02-11T12:55:09.045Z,15.10
2023-02-11T12:57:40.664Z,15.90
2023-02-11T13:00:25.569Z,15.70
2023-02-11T13:03:11.261Z,14.50
2023-02-11T13:05:49.692Z,15.10
2023-02-11T13:08:35.686Z,15.00
2023-02-11T13:11:15.194Z,15.30
2023-02-11T13:13:46.305Z,14.40
2023-02-11T13:16:25.988Z,13.80
2023-02-11T13:19:14.237Z,13.60
2023-02-11T13:21:50.268Z,15.40
2023-02-11T13:24:37.577Z,14.00
2023-02-11T13:27:33.092Z,15.50
2023-02-11T13:30:13.495Z,14.60
2023-02-11T13:33:01.535Z,14.10
2023-02-11T13:35:32.486Z,14.70
2023-02-11T13:38:06.758Z,15.90
2023-02-11T13:40:38.216Z,19.40
2023-02-11T13:43:19.530Z,16.70
2023-02-11T13:45:50.375Z,16.70
2023-02-11T13:50:59.286Z,16.50
2023-02-11T13:53:28.274Z,17.60
2023-02-11T13:56:31.959Z,17.80
2023-02-11T13:59:02.644Z,17.60
2023-02-11T14:02:18.378Z,17.30
2023-02-11T14:05:23.001Z,14.10
2023-02-11T14:08:30.796Z,14.50
2023-02-11T14:11:08.650Z,15.00
2023-02-11T14:13:57.386Z,15.40
2023-02-11T14:16:37.334Z,15.70
2023-02-11T14:19:08.707Z,16.70
2023-02-11T14:21:47.337Z,16.70
2023-02-11T14:24:15.335Z,15.50
2023-02-11T14:27:21.773Z,15.20
2023-02-11T14:30:11.943Z,15.50
2023-02-11T14:32:53.433Z,14.90
2023-02-11T14:36:12.243Z,17.80
2023-02-11T14:39:20.482Z,15.00
2023-02-11T14:41:51.220Z,15.00
2023-02-11T14:44:26.588Z,15.40
2023-02-11T14:46:55.517Z,15.00
2023-02-11T14:49:28.736Z,15.20
2023-02-11T14:52:04.292Z,14.90
2023-02-11T14:54:33.497Z,15.40
2023-02-11T14:57:13.367Z,16.80
2023-02-11T15:00:03.802Z,15.60
2023-02-11T15:02:38.043Z,15.70
2023-02-11T15:05:19.586Z,15.60
2023-02-11T15:07:53.605Z,15.90
2023-02-11T15:10:42.854Z,15.30
2023-02-11T15:13:27.209Z,16.40
2023-02-11T15:16:00.007Z,16.50
2023-02-11T15:18:42.200Z,13.90
2023-02-11T15:21:10.726Z,16.90
2023-02-11T15:23:40.891Z,13.90
2023-02-11T15:26:21.442Z,14.80
2023-02-11T15:28:52.196Z,13.30
2023-02-11T15:31:23.736Z,13.10
2023-02-11T15:33:52.814Z,16.40
2023-02-11T15:36:28.791Z,14.70
2023-02-11T15:39:16.266Z,15.20
2023-02-11T15:41:44.779Z,14.10
2023-02-11T15:44:33.324Z,13.50
2023-02-11T15:47:01.470Z,14.20
2023-02-11T15:49:29.653Z,13.30
2023-02-11T15:51:58.084Z,13.90
2023-02-11T15:54:29.657Z,13.40
2023-02-11T15:57:07.659Z,13.80
2023-02-11T15:59:39.412Z,14.00
2023-02-11T16:02:25.180Z,15.20
2023-02-11T16:05:06.289Z,13.20
2023-02-11T16:10:24.939Z,13.30
2023-02-11T16:12:55.576Z,13.30
2023-02-11T16:15:38.397Z,14.20
2023-02-11T16:18:19.586Z,15.60
2023-02-11T16:20:49.402Z,17.00
2023-02-11T16:23:24.949Z,14.90
2023-02-11T16:25:59.485Z,15.30
2023-02-11T16:28:28.471Z,15.90
2023-02-11T16:30:59.325Z,16.20
2023-02-11T16:33:29.062Z,17.00
2023-02-11T16:35:57.950Z,19.30
2023-02-11T16:38:26.005Z,21.70
2023-02-11T16:40:54.136Z,22.90
2023-02-11T16:43:22.289Z,21.40
2023-02-11T16:45:50.592Z,21.60
2023-02-11T16:48:20.333Z,21.70
2023-02-11T16:50:53.156Z,23.60
2023-02-11T16:53:24.589Z,25.20
2023-02-11T16:55:53.697Z,21.30
2023-02-11T16:58:21.845Z,24.80
2023-02-11T17:00:50.620Z,22.80
2023-02-11T17:03:23.317Z,22.60
2023-02-11T17:05:55.621Z,22.30
2023-02-11T17:08:24.207Z,22.50
2023-02-11T17:10:52.606Z,21.00
2023-02-11T17:13:20.942Z,22.90
2023-02-11T17:15:49.800Z,23.60
2023-02-11T17:18:18.038Z,23.60
2023-02-11T17:20:46.233Z,23.70
2023-02-11T17:23:14.404Z,21.00
2023-02-11T17:25:42.529Z,20.50
2023-02-11T17:28:12.318Z,22.50
2023-02-11T17:30:43.692Z,22.50
2023-02-11T17:33:11.816Z,20.90
2023-02-11T17:35:40.923Z,21.40
2023-02-11T17:38:09.102Z,23.80
2023-02-11T17:40:37.288Z,23.40
2023-02-11T17:43:05.315Z,24.20
2023-02-11T17:45:33.424Z,21.60
2023-02-11T17:48:01.989Z,23.70
2023-02-11T17:50:30.132Z,22.10
2023-02-11T17:52:58.236Z,21.60
2023-02-11T17:55:26.365Z,22.20
2023-02-11T17:57:55.489Z,19.70
2023-02-11T18:00:23.720Z,21.20
2023-02-11T18:02:51.964Z,20.30
2023-02-11T18:05:20.499Z,20.70
2023-02-11T18:07:48.991Z,24.50
2023-02-11T18:10:17.296Z,23.40
2023-02-11T18:12:45.406Z,23.40
2023-02-11T18:15:13.581Z,21.50
2023-02-11T18:17:41.696Z,23.40
2023-02-11T18:20:10.604Z,21.50
2023-02-11T18:22:40.971Z,23.00
2023-02-11T18:25:11.065Z,20.80
2023-02-11T18:27:39.683Z,22.70
2023-02-11T18:30:12.942Z,22.20
2023-02-11T18:32:41.141Z,24.60
2023-02-11T18:35:14.949Z,22.50
2023-02-11T18:37:43.290Z,24.40
2023-02-11T18:40:12.094Z,23.20
2023-02-11T18:42:40.930Z,24.40
2023-02-11T18:45:12.535Z,23.00
2023-02-11T18:47:40.871Z,25.70
2023-02-11T18:50:11.377Z,25.30
2023-02-11T18:52:39.759Z,23.00
2023-02-11T18:55:08.475Z,24.20
2023-02-11T18:57:36.565Z,24.50
2023-02-11T19:00:06.686Z,24.00
2023-02-11T19:02:34.962Z,19.80
2023-02-11T19:05:06.481Z,22.70
2023-02-11T19:07:34.548Z,22.40
2023-02-11T19:10:02.773Z,21.10
2023-02-11T19:12:32.002Z,22.20
2023-02-11T19:15:00.946Z,23.70
2023-02-11T19:17:29.081Z,27.20
2023-02-11T19:19:57.260Z,32.10
2023-02-11T19:22:25.487Z,33.40
2023-02-11T19:24:53.570Z,28.40
2023-02-11T19:27:21.698Z,27.70
2023-02-11T19:29:49.739Z,31.10
2023-02-11T19:32:17.895Z,28.70
2023-02-11T19:34:45.956Z,25.60
2023-02-11T19:37:14.453Z,25.20
2023-02-11T19:39:43.608Z,26.50
2023-02-11T19:42:12.914Z,27.70
2023-02-11T19:44:41.012Z,26.20
2023-02-11T19:47:10.466Z,29.50
2023-02-11T19:49:38.770Z,29.50
2023-02-11T19:52:06.843Z,27.50
2023-02-11T19:54:34.951Z,25.60
2023-02-11T19:57:03.021Z,29.30
2023-02-11T19:59:31.162Z,26.20
2023-02-11T20:02:00.686Z,29.70
2023-02-11T20:04:32.216Z,25.90
2023-02-11T20:07:00.406Z,24.40
2023-02-11T20:09:31.192Z,26.50
2023-02-11T20:11:59.725Z,27.60
2023-02-11T20:14:28.220Z,28.10
2023-02-11T20:16:56.612Z,29.50
2023-02-11T20:19:24.818Z,29.00
2023-02-11T20:21:55.844Z,26.30
2023-02-11T20:24:25.274Z,24.10
2023-02-11T20:26:56.682Z,24.60
2023-02-11T20:29:25.800Z,27.10
2023-02-11T20:31:54.957Z,27.50
2023-02-11T20:34:23.418Z,24.80
2023-02-11T20:36:52.403Z,26.10
2023-02-11T20:39:22.572Z,27.20
2023-02-11T20:41:51.756Z,24.80
2023-02-11T20:44:22.524Z,30.70
2023-02-11T20:46:51.578Z,26.30
2023-02-11T20:49:22.913Z,28.30
2023-02-11T20:51:52.679Z,24.90
2023-02-11T20:54:21.922Z,28.50
2023-02-11T20:56:54.029Z,29.50
2023-02-11T20:59:22.815Z,28.50
2023-02-11T21:01:54.148Z,31.30
2023-02-11T21:04:33.402Z,27.20
2023-02-11T21:07:02.264Z,29.60
2023-02-11T21:09:33.367Z,29.50
2023-02-11T21:12:01.848Z,34.20
2023-02-11T21:14:30.310Z,33.80
2023-02-11T21:16:58.727Z,33.00
2023-02-11T21:19:26.873Z,31.50
2023-02-11T21:21:57.376Z,31.20
2023-02-11T21:24:25.560Z,31.20
2023-02-11T21:26:53.825Z,29.20
2023-02-11T21:29:22.099Z,30.90
2023-02-11T21:31:51.648Z,31.20
2023-02-11T21:34:20.916Z,32.50
2023-02-11T21:36:51.363Z,31.90
2023-02-11T21:39:20.363Z,30.00
2023-02-11T21:41:48.853Z,30.30
2023-02-11T21:44:17.016Z,30.60
2023-02-11T21:46:45.335Z,33.10
2023-02-11T21:49:13.578Z,32.70
2023-02-11T21:51:41.681Z,29.50
2023-02-11T21:54:11.359Z,30.60
2023-02-11T21:56:39.537Z,36.10
2023-02-11T21:59:07.657Z,32.70
2023-02-11T22:01:37.025Z,34.50
2023-02-11T22:04:05.387Z,33.50
2023-02-11T22:06:34.675Z,33.30
2023-02-11T22:09:06.363Z,31.60
2023-02-11T22:11:34.985Z,33.30
2023-02-11T22:14:03.491Z,31.90
2023-02-11T22:16:31.714Z,29.40
2023-02-11T22:19:00.370Z,31.80
2023-02-11T22:21:28.774Z,32.10
2023-02-11T22:23:57.032Z,31.90
2023-02-11T22:26:27.051Z,32.40
2023-02-11T22:28:56.292Z,34.40
2023-02-11T22:31:28.513Z,33.60
2023-02-11T22:33:57.568Z,34.90
2023-02-11T22:36:28.431Z,34.10
2023-02-11T22:38:59.714Z,33.60
2023-02-11T22:41:28.213Z,33.70
2023-02-11T22:43:56.464Z,33.10
2023-02-11T22:46:24.745Z,33.40
2023-02-11T22:48:53.083Z,32.70
2023-02-11T22:51:23.782Z,32.70
2023-02-11T22:53:54.079Z,32.20
2023-02-11T22:56:22.946Z,30.50
2023-02-11T22:58:52.192Z,31.10
2023-02-11T23:01:20.586Z,34.10
2023-02-11T23:03:49.153Z,32.00
2023-02-11T23:06:17.679Z,32.20
2023-02-11T23:08:46.814Z,31.20
2023-02-11T23:11:21.109Z,31.40
2023-02-11T23:13:51.021Z,30.10
2023-02-11T23:16:22.501Z,31.10
2023-02-11T23:18:51.387Z,30.00
2023-02-11T23:21:25.695Z,31.10
2023-02-11T23:23:58.628Z,31.10
2023-02-11T23:26:27.537Z,31.10
2023-02-11T23:28:56.232Z,29.00
2023-02-11T23:31:31.478Z,28.00
2023-02-11T23:34:00.256Z,29.80
2023-02-11T23:36:28.822Z,32.30
2023-02-11T23:38:57.095Z,29.60
2023-02-11T23:41:26.612Z,30.80
2023-02-11T23:43:57.242Z,29.70
2023-02-11T23:46:26.465Z,30.60
2023-02-11T23:48:55.204Z,30.30
2023-02-11T23:51:23.982Z,30.80
2023-02-11T23:53:52.813Z,30.60
2023-02-11T23:56:26.162Z,30.40
2023-02-11T23:58:56.822Z,29.80
